sensor_id;sensor_type;location;lat;lon;timestamp;temperature;humidity
15156;DHT22;7678;50.058;8.306;2023-01-13T00:00:34;9.00;99.90
15156;DHT22;7678;50.058;8.306;2023-01-13T00:03:02;8.90;99.90
15156;DHT22;7678;50.058;8.306;2023-01-13T00:05:30;9.00;99.90
15156;DHT22;7678;50.058;8.306;2023-01-13T00:08:00;9.00;99.90
15156;DHT22;7678;50.058;8.306;2023-01-13T00:10:30;8.90;99.90
15156;DHT22;7678;50.058;8.306;2023-01-13T00:13:00;8.90;99.90
15156;DHT22;7678;50.058;8.306;2023-01-13T00:15:30;8.90;99.90
15156;DHT22;7678;50.058;8.306;2023-01-13T00:17:58;9.00;99.90
15156;DHT22;7678;50.058;8.306;2023-01-13T00:20:26;9.00;99.90
15156;DHT22;7678;50.058;8.306;2023-01-13T00:22:54;9.00;99.90
15156;DHT22;7678;50.058;8.306;2023-01-13T00:25:22;8.90;99.90
15156;DHT22;7678;50.058;8.306;2023-01-13T00:27:50;9.00;99.90
15156;DHT22;7678;50.058;8.306;2023-01-13T00:30:19;9.00;99.90
15156;DHT22;7678;50.058;8.306;2023-01-13T00:32:47;9.00;99.90
15156;DHT22;7678;50.058;8.306;2023-01-13T00:35:15;9.00;99.90
15156;DHT22;7678;50.058;8.306;2023-01-13T00:37:45;9.00;99.90
15156;DHT22;7678;50.058;8.306;2023-01-13T00:40:13;9.00;99.90
15156;DHT22;7678;50.058;8.306;2023-01-13T00:42:41;9.00;99.90
15156;DHT22;7678;50.058;8.306;2023-01-13T00:45:39;9.10;99.90
15156;DHT22;7678;50.058;8.306;2023-01-13T00:48:07;9.10;99.90
15156;DHT22;7678;50.058;8.306;2023-01-13T00:50:35;9.00;99.90
15156;DHT22;7678;50.058;8.306;2023-01-13T00:53:03;9.00;99.90
15156;DHT22;7678;50.058;8.306;2023-01-13T00:55:31;9.00;99.90
15156;DHT22;7678;50.058;8.306;2023-01-13T00:57:59;9.00;99.90
15156;DHT22;7678;50.058;8.306;2023-01-13T01:00:29;9.10;99.90
15156;DHT22;7678;50.058;8.306;2023-01-13T01:02:58;9.10;99.90
15156;DHT22;7678;50.058;8.306;2023-01-13T01:05:27;9.10;99.90
15156;DHT22;7678;50.058;8.306;2023-01-13T01:07:54;9.10;99.90
15156;DHT22;7678;50.058;8.306;2023-01-13T01:10:22;9.10;99.90
15156;DHT22;7678;50.058;8.306;2023-01-13T01:12:50;9.10;99.90
15156;DHT22;7678;50.058;8.306;2023-01-13T01:15:18;9.10;99.90
15156;DHT22;7678;50.058;8.306;2023-01-13T01:17:46;9.10;99.90
15156;DHT22;7678;50.058;8.306;2023-01-13T01:20:16;9.10;99.90
15156;DHT22;7678;50.058;8.306;2023-01-13T01:22:44;9.10;99.90
15156;DHT22;7678;50.058;8.306;2023-01-13T01:25:12;9.20;99.90
15156;DHT22;7678;50.058;8.306;2023-01-13T01:27:40;9.20;99.90
15156;DHT22;7678;50.058;8.306;2023-01-13T01:30:09;9.20;99.90
15156;DHT22;7678;50.058;8.306;2023-01-13T01:32:37;9.20;99.90
15156;DHT22;7678;50.058;8.306;2023-01-13T01:35:05;9.20;99.90
15156;DHT22;7678;50.058;8.306;2023-01-13T01:37:38;9.30;99.90
15156;DHT22;7678;50.058;8.306;2023-01-13T01:40:07;9.20;99.90
15156;DHT22;7678;50.058;8.306;2023-01-13T01:42:35;9.30;99.90
15156;DHT22;7678;50.058;8.306;2023-01-13T01:45:21;9.30;99.90
15156;DHT22;7678;50.058;8.306;2023-01-13T01:47:51;9.40;99.90
15156;DHT22;7678;50.058;8.306;2023-01-13T01:50:21;9.30;99.90
15156;DHT22;7678;50.058;8.306;2023-01-13T01:52:54;9.30;99.90
15156;DHT22;7678;50.058;8.306;2023-01-13T01:55:26;9.30;99.90
15156;DHT22;7678;50.058;8.306;2023-01-13T01:58:00;9.30;99.90
15156;DHT22;7678;50.058;8.306;2023-01-13T02:00:28;9.30;99.90
15156;DHT22;7678;50.058;8.306;2023-01-13T02:02:58;9.40;99.90
15156;DHT22;7678;50.058;8.306;2023-01-13T02:05:26;9.30;99.90
15156;DHT22;7678;50.058;8.306;2023-01-13T02:07:57;9.30;99.90
15156;DHT22;7678;50.058;8.306;2023-01-13T02:10:28;9.30;99.90
15156;DHT22;7678;50.058;8.306;2023-01-13T02:12:59;9.30;99.90
15156;DHT22;7678;50.058;8.306;2023-01-13T02:15:34;9.20;99.90
15156;DHT22;7678;50.058;8.306;2023-01-13T02:18:15;9.30;99.90
15156;DHT22;7678;50.058;8.306;2023-01-13T02:24:24;9.20;99.90
15156;DHT22;7678;50.058;8.306;2023-01-13T02:27:39;9.30;99.90
15156;DHT22;7678;50.058;8.306;2023-01-13T02:30:25;9.30;99.90
15156;DHT22;7678;50.058;8.306;2023-01-13T02:33:25;9.30;99.90
15156;DHT22;7678;50.058;8.306;2023-01-13T02:35:58;9.30;99.90
15156;DHT22;7678;50.058;8.306;2023-01-13T02:38:32;9.30;99.90
15156;DHT22;7678;50.058;8.306;2023-01-13T02:41:04;9.30;99.90
15156;DHT22;7678;50.058;8.306;2023-01-13T02:43:49;9.20;99.90
15156;DHT22;7678;50.058;8.306;2023-01-13T02:46:45;9.30;99.90
15156;DHT22;7678;50.058;8.306;2023-01-13T02:49:21;9.30;99.90
15156;DHT22;7678;50.058;8.306;2023-01-13T02:51:51;9.30;99.90
15156;DHT22;7678;50.058;8.306;2023-01-13T02:54:24;9.30;99.90
15156;DHT22;7678;50.058;8.306;2023-01-13T02:56:54;9.40;99.90
15156;DHT22;7678;50.058;8.306;2023-01-13T02:59:24;9.30;99.90
15156;DHT22;7678;50.058;8.306;2023-01-13T03:01:56;9.30;99.90
15156;DHT22;7678;50.058;8.306;2023-01-13T03:04:47;9.30;99.90
15156;DHT22;7678;50.058;8.306;2023-01-13T03:07:43;9.30;99.90
15156;DHT22;7678;50.058;8.306;2023-01-13T03:10:25;9.30;99.90
15156;DHT22;7678;50.058;8.306;2023-01-13T03:13:01;9.30;99.90
15156;DHT22;7678;50.058;8.306;2023-01-13T03:15:42;9.30;99.90
15156;DHT22;7678;50.058;8.306;2023-01-13T03:18:29;9.40;99.90
15156;DHT22;7678;50.058;8.306;2023-01-13T03:21:04;9.40;99.90
15156;DHT22;7678;50.058;8.306;2023-01-13T03:23:38;9.30;99.90
15156;DHT22;7678;50.058;8.306;2023-01-13T03:26:11;9.30;99.90
15156;DHT22;7678;50.058;8.306;2023-01-13T03:28:53;9.30;99.90
15156;DHT22;7678;50.058;8.306;2023-01-13T03:31:27;9.40;99.90
15156;DHT22;7678;50.058;8.306;2023-01-13T03:34:02;9.30;99.90
15156;DHT22;7678;50.058;8.306;2023-01-13T03:36:33;9.40;99.90
15156;DHT22;7678;50.058;8.306;2023-01-13T03:39:06;9.30;99.90
15156;DHT22;7678;50.058;8.306;2023-01-13T03:41:39;9.30;99.90
15156;DHT22;7678;50.058;8.306;2023-01-13T03:44:10;9.30;99.90
15156;DHT22;7678;50.058;8.306;2023-01-13T03:46:53;9.30;99.90
15156;DHT22;7678;50.058;8.306;2023-01-13T03:49:31;9.40;99.90
15156;DHT22;7678;50.058;8.306;2023-01-13T03:52:04;9.40;99.90
15156;DHT22;7678;50.058;8.306;2023-01-13T03:54:38;9.40;99.90
15156;DHT22;7678;50.058;8.306;2023-01-13T03:57:12;9.40;99.90
15156;DHT22;7678;50.058;8.306;2023-01-13T03:59:44;9.40;99.90
15156;DHT22;7678;50.058;8.306;2023-01-13T04:02:18;9.40;99.90
15156;DHT22;7678;50.058;8.306;2023-01-13T04:04:53;9.50;99.90
15156;DHT22;7678;50.058;8.306;2023-01-13T04:07:31;9.50;99.90
15156;DHT22;7678;50.058;8.306;2023-01-13T04:10:03;9.40;99.90
15156;DHT22;7678;50.058;8.306;2023-01-13T04:12:36;9.40;99.90
15156;DHT22;7678;50.058;8.306;2023-01-13T04:15:21;9.40;99.90
15156;DHT22;7678;50.058;8.306;2023-01-13T04:17:50;9.50;99.90
15156;DHT22;7678;50.058;8.306;2023-01-13T04:20:19;9.40;99.90
15156;DHT22;7678;50.058;8.306;2023-01-13T04:22:47;9.30;99.90
15156;DHT22;7678;50.058;8.306;2023-01-13T04:25:15;9.40;99.90
15156;DHT22;7678;50.058;8.306;2023-01-13T04:27:43;9.40;99.90
15156;DHT22;7678;50.058;8.306;2023-01-13T04:30:12;9.40;99.90
15156;DHT22;7678;50.058;8.306;2023-01-13T04:32:40;9.30;99.90
15156;DHT22;7678;50.058;8.306;2023-01-13T04:35:08;9.20;99.90
15156;DHT22;7678;50.058;8.306;2023-01-13T04:37:40;9.20;99.90
15156;DHT22;7678;50.058;8.306;2023-01-13T04:40:08;9.20;99.90
15156;DHT22;7678;50.058;8.306;2023-01-13T04:42:37;9.20;99.90
15156;DHT22;7678;50.058;8.306;2023-01-13T04:45:05;9.20;99.90
15156;DHT22;7678;50.058;8.306;2023-01-13T04:47:34;9.30;99.90
15156;DHT22;7678;50.058;8.306;2023-01-13T04:50:03;9.20;99.90
15156;DHT22;7678;50.058;8.306;2023-01-13T04:52:31;9.20;99.90
15156;DHT22;7678;50.058;8.306;2023-01-13T04:55:00;9.10;99.90
15156;DHT22;7678;50.058;8.306;2023-01-13T04:57:28;9.00;99.90
15156;DHT22;7678;50.058;8.306;2023-01-13T04:59:58;8.90;99.90
15156;DHT22;7678;50.058;8.306;2023-01-13T05:02:27;8.80;99.90
15156;DHT22;7678;50.058;8.306;2023-01-13T05:04:55;8.80;99.90
15156;DHT22;7678;50.058;8.306;2023-01-13T05:07:23;8.80;99.90
15156;DHT22;7678;50.058;8.306;2023-01-13T05:09:51;8.80;99.90
15156;DHT22;7678;50.058;8.306;2023-01-13T05:12:20;8.50;99.90
15156;DHT22;7678;50.058;8.306;2023-01-13T05:15:06;8.00;99.90
15156;DHT22;7678;50.058;8.306;2023-01-13T05:17:52;7.80;99.90
15156;DHT22;7678;50.058;8.306;2023-01-13T05:20:20;7.60;99.90
15156;DHT22;7678;50.058;8.306;2023-01-13T05:22:48;7.50;99.90
15156;DHT22;7678;50.058;8.306;2023-01-13T05:25:36;7.50;99.90
15156;DHT22;7678;50.058;8.306;2023-01-13T05:28:06;7.50;99.90
15156;DHT22;7678;50.058;8.306;2023-01-13T05:30:37;7.50;99.90
15156;DHT22;7678;50.058;8.306;2023-01-13T05:33:07;7.50;99.90
15156;DHT22;7678;50.058;8.306;2023-01-13T05:35:37;7.60;99.90
15156;DHT22;7678;50.058;8.306;2023-01-13T05:38:05;7.50;99.90
15156;DHT22;7678;50.058;8.306;2023-01-13T05:40:33;7.60;99.90
15156;DHT22;7678;50.058;8.306;2023-01-13T05:43:20;7.60;99.90
15156;DHT22;7678;50.058;8.306;2023-01-13T05:45:55;7.50;99.90
15156;DHT22;7678;50.058;8.306;2023-01-13T05:48:25;7.50;99.90
15156;DHT22;7678;50.058;8.306;2023-01-13T05:50:53;7.50;99.90
15156;DHT22;7678;50.058;8.306;2023-01-13T05:53:22;7.60;99.90
15156;DHT22;7678;50.058;8.306;2023-01-13T05:55:51;7.60;99.90
15156;DHT22;7678;50.058;8.306;2023-01-13T05:58:22;7.60;99.90
15156;DHT22;7678;50.058;8.306;2023-01-13T06:00:51;7.60;99.90
15156;DHT22;7678;50.058;8.306;2023-01-13T06:03:19;7.60;99.90
15156;DHT22;7678;50.058;8.306;2023-01-13T06:05:47;7.50;99.90
15156;DHT22;7678;50.058;8.306;2023-01-13T06:08:17;7.50;99.90
15156;DHT22;7678;50.058;8.306;2023-01-13T06:10:45;7.60;99.90
15156;DHT22;7678;50.058;8.306;2023-01-13T06:13:13;7.60;99.90
15156;DHT22;7678;50.058;8.306;2023-01-13T06:15:42;7.70;99.90
15156;DHT22;7678;50.058;8.306;2023-01-13T06:18:10;7.60;99.90
15156;DHT22;7678;50.058;8.306;2023-01-13T06:20:38;7.60;99.90
15156;DHT22;7678;50.058;8.306;2023-01-13T06:23:07;7.60;99.90
15156;DHT22;7678;50.058;8.306;2023-01-13T06:25:41;7.60;99.90
15156;DHT22;7678;50.058;8.306;2023-01-13T06:28:11;7.50;99.90
15156;DHT22;7678;50.058;8.306;2023-01-13T06:30:44;7.50;99.90
15156;DHT22;7678;50.058;8.306;2023-01-13T06:33:14;7.50;99.90
15156;DHT22;7678;50.058;8.306;2023-01-13T06:35:45;7.50;99.90
15156;DHT22;7678;50.058;8.306;2023-01-13T06:38:21;7.40;99.90
15156;DHT22;7678;50.058;8.306;2023-01-13T06:40:53;7.40;99.90
15156;DHT22;7678;50.058;8.306;2023-01-13T06:43:22;7.40;99.90
15156;DHT22;7678;50.058;8.306;2023-01-13T06:45:52;7.40;99.90
15156;DHT22;7678;50.058;8.306;2023-01-13T06:48:22;7.40;99.90
15156;DHT22;7678;50.058;8.306;2023-01-13T06:50:51;7.30;99.90
15156;DHT22;7678;50.058;8.306;2023-01-13T06:53:19;7.30;99.90
15156;DHT22;7678;50.058;8.306;2023-01-13T06:55:47;7.30;99.90
15156;DHT22;7678;50.058;8.306;2023-01-13T06:58:15;7.30;99.90
15156;DHT22;7678;50.058;8.306;2023-01-13T07:00:43;7.20;99.90
15156;DHT22;7678;50.058;8.306;2023-01-13T07:03:17;7.20;99.90
15156;DHT22;7678;50.058;8.306;2023-01-13T07:05:51;7.10;99.90
15156;DHT22;7678;50.058;8.306;2023-01-13T07:08:20;7.20;99.90
15156;DHT22;7678;50.058;8.306;2023-01-13T07:10:48;7.10;99.90
15156;DHT22;7678;50.058;8.306;2023-01-13T07:13:17;7.10;99.90
15156;DHT22;7678;50.058;8.306;2023-01-13T07:16:04;7.00;99.90
15156;DHT22;7678;50.058;8.306;2023-01-13T07:18:34;6.90;99.90
15156;DHT22;7678;50.058;8.306;2023-01-13T07:21:04;6.90;99.90
15156;DHT22;7678;50.058;8.306;2023-01-13T07:23:34;6.70;99.90
15156;DHT22;7678;50.058;8.306;2023-01-13T07:26:03;6.80;99.90
15156;DHT22;7678;50.058;8.306;2023-01-13T07:28:32;6.90;99.90
15156;DHT22;7678;50.058;8.306;2023-01-13T07:31:02;6.80;99.90
15156;DHT22;7678;50.058;8.306;2023-01-13T07:33:31;6.80;99.90
15156;DHT22;7678;50.058;8.306;2023-01-13T07:36:02;6.70;99.90
15156;DHT22;7678;50.058;8.306;2023-01-13T07:38:31;6.70;99.90
15156;DHT22;7678;50.058;8.306;2023-01-13T07:41:00;6.80;99.90
15156;DHT22;7678;50.058;8.306;2023-01-13T07:43:51;6.80;99.90
15156;DHT22;7678;50.058;8.306;2023-01-13T07:46:18;6.80;99.90
15156;DHT22;7678;50.058;8.306;2023-01-13T07:48:46;6.90;99.90
15156;DHT22;7678;50.058;8.306;2023-01-13T07:51:16;6.90;99.90
15156;DHT22;7678;50.058;8.306;2023-01-13T07:53:44;7.00;99.90
15156;DHT22;7678;50.058;8.306;2023-01-13T07:56:12;7.00;99.90
15156;DHT22;7678;50.058;8.306;2023-01-13T07:58:40;7.00;99.90
15156;DHT22;7678;50.058;8.306;2023-01-13T08:01:11;7.00;99.90
15156;DHT22;7678;50.058;8.306;2023-01-13T08:03:40;6.90;99.90
15156;DHT22;7678;50.058;8.306;2023-01-13T08:06:09;7.00;99.90
15156;DHT22;7678;50.058;8.306;2023-01-13T08:08:38;7.00;99.90
15156;DHT22;7678;50.058;8.306;2023-01-13T08:11:07;7.10;99.90
15156;DHT22;7678;50.058;8.306;2023-01-13T08:13:35;7.00;99.90
15156;DHT22;7678;50.058;8.306;2023-01-13T08:16:05;7.10;99.90
15156;DHT22;7678;50.058;8.306;2023-01-13T08:18:35;7.20;99.90
15156;DHT22;7678;50.058;8.306;2023-01-13T08:21:05;7.20;99.90
15156;DHT22;7678;50.058;8.306;2023-01-13T08:23:33;7.20;99.90
15156;DHT22;7678;50.058;8.306;2023-01-13T08:26:05;7.20;99.90
15156;DHT22;7678;50.058;8.306;2023-01-13T08:28:34;7.20;99.90
15156;DHT22;7678;50.058;8.306;2023-01-13T08:31:06;7.20;99.90
15156;DHT22;7678;50.058;8.306;2023-01-13T08:33:35;7.30;99.90
15156;DHT22;7678;50.058;8.306;2023-01-13T08:36:08;7.30;99.90
15156;DHT22;7678;50.058;8.306;2023-01-13T08:38:38;7.30;99.90
15156;DHT22;7678;50.058;8.306;2023-01-13T08:41:12;7.30;99.90
15156;DHT22;7678;50.058;8.306;2023-01-13T08:43:41;7.30;99.90
15156;DHT22;7678;50.058;8.306;2023-01-13T08:46:12;7.30;99.90
15156;DHT22;7678;50.058;8.306;2023-01-13T08:48:40;7.30;99.90
15156;DHT22;7678;50.058;8.306;2023-01-13T08:51:08;7.20;99.90
15156;DHT22;7678;50.058;8.306;2023-01-13T08:53:36;7.20;99.90
15156;DHT22;7678;50.058;8.306;2023-01-13T08:56:06;7.10;99.90
15156;DHT22;7678;50.058;8.306;2023-01-13T08:58:38;7.10;99.90
15156;DHT22;7678;50.058;8.306;2023-01-13T09:01:07;7.00;99.90
15156;DHT22;7678;50.058;8.306;2023-01-13T09:03:35;7.20;99.90
15156;DHT22;7678;50.058;8.306;2023-01-13T09:06:05;7.40;99.90
15156;DHT22;7678;50.058;8.306;2023-01-13T09:08:33;7.50;99.90
15156;DHT22;7678;50.058;8.306;2023-01-13T09:11:01;7.60;99.90
15156;DHT22;7678;50.058;8.306;2023-01-13T09:13:53;7.70;99.90
15156;DHT22;7678;50.058;8.306;2023-01-13T09:16:20;7.70;99.90
15156;DHT22;7678;50.058;8.306;2023-01-13T09:18:48;7.60;99.90
15156;DHT22;7678;50.058;8.306;2023-01-13T09:21:19;7.60;99.90
15156;DHT22;7678;50.058;8.306;2023-01-13T09:23:48;7.60;99.90
15156;DHT22;7678;50.058;8.306;2023-01-13T09:26:19;7.60;99.90
15156;DHT22;7678;50.058;8.306;2023-01-13T09:28:48;7.70;99.90
15156;DHT22;7678;50.058;8.306;2023-01-13T09:31:18;7.80;99.90
15156;DHT22;7678;50.058;8.306;2023-01-13T09:33:46;7.80;99.90
15156;DHT22;7678;50.058;8.306;2023-01-13T09:36:31;7.90;99.90
15156;DHT22;7678;50.058;8.306;2023-01-13T09:38:59;8.00;99.90
15156;DHT22;7678;50.058;8.306;2023-01-13T09:41:30;8.10;99.90
15156;DHT22;7678;50.058;8.306;2023-01-13T09:44:22;8.20;99.90
15156;DHT22;7678;50.058;8.306;2023-01-13T09:46:57;8.10;99.90
15156;DHT22;7678;50.058;8.306;2023-01-13T09:49:32;8.20;99.90
15156;DHT22;7678;50.058;8.306;2023-01-13T09:52:03;8.10;99.90
15156;DHT22;7678;50.058;8.306;2023-01-13T09:54:38;8.20;99.90
15156;DHT22;7678;50.058;8.306;2023-01-13T09:57:09;8.30;99.90
15156;DHT22;7678;50.058;8.306;2023-01-13T09:59:37;8.40;99.90
15156;DHT22;7678;50.058;8.306;2023-01-13T10:02:28;8.40;99.90
15156;DHT22;7678;50.058;8.306;2023-01-13T10:05:08;8.50;99.90
15156;DHT22;7678;50.058;8.306;2023-01-13T10:07:41;8.60;99.90
15156;DHT22;7678;50.058;8.306;2023-01-13T10:10:14;8.70;99.90
15156;DHT22;7678;50.058;8.306;2023-01-13T10:12:44;8.70;99.90
15156;DHT22;7678;50.058;8.306;2023-01-13T10:15:31;8.80;99.90
15156;DHT22;7678;50.058;8.306;2023-01-13T10:18:08;8.80;99.90
15156;DHT22;7678;50.058;8.306;2023-01-13T10:20:48;8.80;99.90
15156;DHT22;7678;50.058;8.306;2023-01-13T10:23:47;8.80;99.90
15156;DHT22;7678;50.058;8.306;2023-01-13T10:26:29;8.80;99.90
15156;DHT22;7678;50.058;8.306;2023-01-13T10:29:01;8.80;99.90
15156;DHT22;7678;50.058;8.306;2023-01-13T10:31:28;8.90;99.90
15156;DHT22;7678;50.058;8.306;2023-01-13T10:33:59;8.90;99.90
15156;DHT22;7678;50.058;8.306;2023-01-13T10:36:27;8.90;99.90
15156;DHT22;7678;50.058;8.306;2023-01-13T10:39:06;9.00;99.90
15156;DHT22;7678;50.058;8.306;2023-01-13T10:41:34;9.10;99.90
15156;DHT22;7678;50.058;8.306;2023-01-13T10:44:05;9.10;99.90
15156;DHT22;7678;50.058;8.306;2023-01-13T10:46:50;9.00;99.90
15156;DHT22;7678;50.058;8.306;2023-01-13T10:49:28;9.10;99.90
15156;DHT22;7678;50.058;8.306;2023-01-13T10:51:59;9.30;99.90
15156;DHT22;7678;50.058;8.306;2023-01-13T10:54:30;9.50;99.90
15156;DHT22;7678;50.058;8.306;2023-01-13T10:57:13;9.60;99.90
15156;DHT22;7678;50.058;8.306;2023-01-13T10:59:41;9.70;99.90
15156;DHT22;7678;50.058;8.306;2023-01-13T11:02:19;9.40;99.90
15156;DHT22;7678;50.058;8.306;2023-01-13T11:05:04;9.60;99.90
15156;DHT22;7678;50.058;8.306;2023-01-13T11:07:38;9.40;99.90
15156;DHT22;7678;50.058;8.306;2023-01-13T11:10:17;9.50;99.90
15156;DHT22;7678;50.058;8.306;2023-01-13T11:12:55;9.50;99.90
15156;DHT22;7678;50.058;8.306;2023-01-13T11:15:36;9.60;99.90
15156;DHT22;7678;50.058;8.306;2023-01-13T11:18:12;9.90;99.90
15156;DHT22;7678;50.058;8.306;2023-01-13T11:20:45;9.90;99.90
15156;DHT22;7678;50.058;8.306;2023-01-13T11:23:17;9.80;99.90
15156;DHT22;7678;50.058;8.306;2023-01-13T11:25:52;9.70;99.90
15156;DHT22;7678;50.058;8.306;2023-01-13T11:28:34;9.80;99.90
15156;DHT22;7678;50.058;8.306;2023-01-13T11:31:09;9.90;99.90
15156;DHT22;7678;50.058;8.306;2023-01-13T11:33:42;10.10;99.90
15156;DHT22;7678;50.058;8.306;2023-01-13T11:36:17;10.00;99.90
15156;DHT22;7678;50.058;8.306;2023-01-13T11:38:49;9.90;99.90
15156;DHT22;7678;50.058;8.306;2023-01-13T11:41:30;10.00;99.90
15156;DHT22;7678;50.058;8.306;2023-01-13T11:44:07;9.90;99.90
15156;DHT22;7678;50.058;8.306;2023-01-13T11:46:38;10.10;99.90
15156;DHT22;7678;50.058;8.306;2023-01-13T11:49:11;9.90;99.90
15156;DHT22;7678;50.058;8.306;2023-01-13T11:51:47;10.00;99.90
15156;DHT22;7678;50.058;8.306;2023-01-13T11:54:42;10.00;99.90
15156;DHT22;7678;50.058;8.306;2023-01-13T11:57:42;9.90;99.90
15156;DHT22;7678;50.058;8.306;2023-01-13T12:00:24;9.80;99.90
15156;DHT22;7678;50.058;8.306;2023-01-13T12:03:01;9.70;99.90
15156;DHT22;7678;50.058;8.306;2023-01-13T12:05:41;9.80;99.90
15156;DHT22;7678;50.058;8.306;2023-01-13T12:08:16;9.90;99.90
15156;DHT22;7678;50.058;8.306;2023-01-13T12:10:58;9.90;99.90
15156;DHT22;7678;50.058;8.306;2023-01-13T12:13:36;9.70;99.90
15156;DHT22;7678;50.058;8.306;2023-01-13T12:16:13;9.70;99.90
15156;DHT22;7678;50.058;8.306;2023-01-13T12:21:59;9.90;99.90
15156;DHT22;7678;50.058;8.306;2023-01-13T12:24:31;10.10;99.90
15156;DHT22;7678;50.058;8.306;2023-01-13T12:27:05;10.10;99.90
15156;DHT22;7678;50.058;8.306;2023-01-13T12:29:40;10.20;99.90
15156;DHT22;7678;50.058;8.306;2023-01-13T12:32:13;10.40;99.90
15156;DHT22;7678;50.058;8.306;2023-01-13T12:34:48;10.40;99.90
15156;DHT22;7678;50.058;8.306;2023-01-13T12:37:24;10.60;99.90
15156;DHT22;7678;50.058;8.306;2023-01-13T12:40:24;10.80;99.90
15156;DHT22;7678;50.058;8.306;2023-01-13T12:43:05;10.70;96.30
15156;DHT22;7678;50.058;8.306;2023-01-13T12:49:05;10.60;99.90
15156;DHT22;7678;50.058;8.306;2023-01-13T12:51:36;10.70;98.10
15156;DHT22;7678;50.058;8.306;2023-01-13T12:54:32;10.70;99.90
15156;DHT22;7678;50.058;8.306;2023-01-13T12:57:25;10.30;96.00
15156;DHT22;7678;50.058;8.306;2023-01-13T13:00:11;10.10;99.90
15156;DHT22;7678;50.058;8.306;2023-01-13T13:02:40;9.90;99.90
15156;DHT22;7678;50.058;8.306;2023-01-13T13:05:40;10.00;99.90
15156;DHT22;7678;50.058;8.306;2023-01-13T13:08:18;10.00;99.90
15156;DHT22;7678;50.058;8.306;2023-01-13T13:11:19;9.90;99.90
15156;DHT22;7678;50.058;8.306;2023-01-13T13:14:02;9.80;99.90
15156;DHT22;7678;50.058;8.306;2023-01-13T13:16:54;9.60;99.90
15156;DHT22;7678;50.058;8.306;2023-01-13T13:19:45;9.50;99.90
15156;DHT22;7678;50.058;8.306;2023-01-13T13:25:25;9.10;99.90
15156;DHT22;7678;50.058;8.306;2023-01-13T13:28:12;9.00;99.90
15156;DHT22;7678;50.058;8.306;2023-01-13T13:31:11;8.70;99.90
15156;DHT22;7678;50.058;8.306;2023-01-13T13:33:56;8.60;99.90
15156;DHT22;7678;50.058;8.306;2023-01-13T13:36:47;8.30;99.90
15156;DHT22;7678;50.058;8.306;2023-01-13T13:39:20;8.40;99.90
15156;DHT22;7678;50.058;8.306;2023-01-13T13:42:12;8.50;99.90
15156;DHT22;7678;50.058;8.306;2023-01-13T13:45:00;8.60;99.90
15156;DHT22;7678;50.058;8.306;2023-01-13T13:47:47;8.60;99.90
15156;DHT22;7678;50.058;8.306;2023-01-13T13:50:18;8.50;99.90
15156;DHT22;7678;50.058;8.306;2023-01-13T13:52:50;8.50;99.90
15156;DHT22;7678;50.058;8.306;2023-01-13T13:55:22;8.50;99.90
15156;DHT22;7678;50.058;8.306;2023-01-13T13:57:53;8.50;99.90
15156;DHT22;7678;50.058;8.306;2023-01-13T14:00:26;8.60;99.90
15156;DHT22;7678;50.058;8.306;2023-01-13T14:02:57;8.50;99.90
15156;DHT22;7678;50.058;8.306;2023-01-13T14:05:28;8.40;99.90
15156;DHT22;7678;50.058;8.306;2023-01-13T14:08:01;8.50;99.90
15156;DHT22;7678;50.058;8.306;2023-01-13T14:10:31;8.50;99.90
15156;DHT22;7678;50.058;8.306;2023-01-13T14:13:00;8.40;99.90
15156;DHT22;7678;50.058;8.306;2023-01-13T14:15:33;8.40;99.90
15156;DHT22;7678;50.058;8.306;2023-01-13T14:18:09;8.30;99.90
15156;DHT22;7678;50.058;8.306;2023-01-13T14:20:38;8.10;99.90
15156;DHT22;7678;50.058;8.306;2023-01-13T14:23:15;8.10;99.90
15156;DHT22;7678;50.058;8.306;2023-01-13T14:25:49;8.00;99.90
15156;DHT22;7678;50.058;8.306;2023-01-13T14:28:21;8.00;99.90
15156;DHT22;7678;50.058;8.306;2023-01-13T14:30:52;8.00;99.90
15156;DHT22;7678;50.058;8.306;2023-01-13T14:33:26;8.10;99.90
15156;DHT22;7678;50.058;8.306;2023-01-13T14:36:13;8.10;99.90
15156;DHT22;7678;50.058;8.306;2023-01-13T14:38:44;8.20;99.90
15156;DHT22;7678;50.058;8.306;2023-01-13T14:41:31;8.20;99.90
15156;DHT22;7678;50.058;8.306;2023-01-13T14:44:11;8.20;99.90
15156;DHT22;7678;50.058;8.306;2023-01-13T14:46:42;8.20;99.90
15156;DHT22;7678;50.058;8.306;2023-01-13T14:49:21;8.20;99.90
15156;DHT22;7678;50.058;8.306;2023-01-13T14:51:50;8.10;99.90
15156;DHT22;7678;50.058;8.306;2023-01-13T14:54:40;8.20;99.90
15156;DHT22;7678;50.058;8.306;2023-01-13T14:57:23;8.20;99.90
15156;DHT22;7678;50.058;8.306;2023-01-13T15:00:05;8.10;99.90
15156;DHT22;7678;50.058;8.306;2023-01-13T15:02:46;8.20;99.90
15156;DHT22;7678;50.058;8.306;2023-01-13T15:05:38;8.20;99.90
15156;DHT22;7678;50.058;8.306;2023-01-13T15:08:27;8.20;99.90
15156;DHT22;7678;50.058;8.306;2023-01-13T15:10:57;8.30;99.90
15156;DHT22;7678;50.058;8.306;2023-01-13T15:13:40;8.30;99.90
15156;DHT22;7678;50.058;8.306;2023-01-13T15:16:20;8.20;99.90
15156;DHT22;7678;50.058;8.306;2023-01-13T15:18:53;8.20;99.90
15156;DHT22;7678;50.058;8.306;2023-01-13T15:21:25;8.20;99.90
15156;DHT22;7678;50.058;8.306;2023-01-13T15:23:53;8.30;99.90
15156;DHT22;7678;50.058;8.306;2023-01-13T15:26:23;8.30;99.90
15156;DHT22;7678;50.058;8.306;2023-01-13T15:28:52;8.30;99.90
15156;DHT22;7678;50.058;8.306;2023-01-13T15:31:22;8.30;99.90
15156;DHT22;7678;50.058;8.306;2023-01-13T15:33:52;8.30;99.90
15156;DHT22;7678;50.058;8.306;2023-01-13T15:36:26;8.20;99.90
15156;DHT22;7678;50.058;8.306;2023-01-13T15:38:55;8.20;99.90
15156;DHT22;7678;50.058;8.306;2023-01-13T15:41:26;8.30;99.90
15156;DHT22;7678;50.058;8.306;2023-01-13T15:44:12;8.30;99.90
15156;DHT22;7678;50.058;8.306;2023-01-13T15:46:59;8.30;99.90
15156;DHT22;7678;50.058;8.306;2023-01-13T15:49:33;8.10;99.90
15156;DHT22;7678;50.058;8.306;2023-01-13T15:52:03;8.10;99.90
15156;DHT22;7678;50.058;8.306;2023-01-13T15:54:31;8.20;99.90
15156;DHT22;7678;50.058;8.306;2023-01-13T15:56:59;8.10;99.90
15156;DHT22;7678;50.058;8.306;2023-01-13T15:59:27;8.10;99.90
15156;DHT22;7678;50.058;8.306;2023-01-13T16:01:58;8.10;99.90
15156;DHT22;7678;50.058;8.306;2023-01-13T16:04:26;8.10;99.90
15156;DHT22;7678;50.058;8.306;2023-01-13T16:06:55;8.10;99.90
15156;DHT22;7678;50.058;8.306;2023-01-13T16:09:26;8.10;99.90
15156;DHT22;7678;50.058;8.306;2023-01-13T16:11:56;8.10;99.90
15156;DHT22;7678;50.058;8.306;2023-01-13T16:14:24;8.10;99.90
15156;DHT22;7678;50.058;8.306;2023-01-13T16:16:52;8.00;99.90
15156;DHT22;7678;50.058;8.306;2023-01-13T16:19:20;8.10;99.90
15156;DHT22;7678;50.058;8.306;2023-01-13T16:21:48;8.10;99.90
15156;DHT22;7678;50.058;8.306;2023-01-13T16:24:17;8.00;99.90
15156;DHT22;7678;50.058;8.306;2023-01-13T16:26:45;7.90;99.90
15156;DHT22;7678;50.058;8.306;2023-01-13T16:29:13;7.90;99.90
15156;DHT22;7678;50.058;8.306;2023-01-13T16:31:41;7.80;99.90
15156;DHT22;7678;50.058;8.306;2023-01-13T16:34:09;7.80;99.90
15156;DHT22;7678;50.058;8.306;2023-01-13T16:36:37;7.90;99.90
15156;DHT22;7678;50.058;8.306;2023-01-13T16:39:22;7.80;99.90
15156;DHT22;7678;50.058;8.306;2023-01-13T16:41:50;7.80;99.90
15156;DHT22;7678;50.058;8.306;2023-01-13T16:44:18;7.80;99.90
15156;DHT22;7678;50.058;8.306;2023-01-13T16:46:46;7.80;99.90
15156;DHT22;7678;50.058;8.306;2023-01-13T16:49:15;7.80;99.90
15156;DHT22;7678;50.058;8.306;2023-01-13T16:51:43;7.80;99.90
15156;DHT22;7678;50.058;8.306;2023-01-13T16:54:12;7.70;99.90